Marlborough, NH (03455)

9:14 PM EDT on August 26, 2016 (GMT -0400)
APRSWXNET | | Change Station

Elev 754 ft 42.91 °N, 72.22 °W | Updated 43 minutes ago

Clear
Clear
69 °F
Feels Like 69 °F
N
0
Wind Variable Wind from NNE
Gusts 0.0 mph

Today
High -- | Low -- °F
--% Chance of Precip.
Yesterday
High -- | Low -- °F
Precip. -- in
Pressure 30.08 in
Visibility 10.0 miles
Clouds Clear
Dew Point 67 °F
Humidity 92%
Rainfall in
Snow Depth Not available.
6:07 AM 7:32 PM
Waning Crescent, 29% visible
METAR KEEN 270056Z AUTO 19003KT 10SM CLR 20/17 A3004 RMK AO2 SLP186 T02000172
Pressure 30.08 in
Visibility 10.0 miles
Clouds Clear
Dew Point 67 °F
Humidity 92%
Rainfall in
Snow Depth Not available.
6:07 AM 7:32 PM
Waning Crescent, 29% visible
METAR KEEN 270056Z AUTO 19003KT 10SM CLR 20/17 A3004 RMK AO2 SLP186 T02000172

10-Day Weather Forecast

Almanac

Astronomy

Aug. 26, 2016 Rise Set
Actual Time
Civil Twilight
Nautical Twilight
Astronomical Twilight
Moon
Length of Visible Light
Length of Day
Tomorrow will be .
, % of the Moon is Illuminated

Today's Extremes

State Highs State Lows

Community

WunderPhotos

Upload Photos

1,935,261 photos uploaded!

WunderBlog® & News

Nearby

Air Quality

  Air Quality AQ Index Pollutant
Not available.

Snow Depth

Station Depth Elevation

Earthquake Activity

City Distance Mag. Time & Date
Minimum magnitude displayed is 2.5.

Coastal Water Temperatures

Place Temperature

Stations

Nearby Weather Stations

Station Location Temp. Windchill Dew Point Humidity Wind Precip. Elev Updated Type
                   

Watches & Warnings

There are currently no watches in effect.